sensor_id;sensor_type;location;lat;lon;timestamp;P1;durP1;ratioP1;P2;durP2;ratioP2
73421;SDS011;61637;47.760;-122.022;2023-01-15T00:00:02;7.7;;;2.3;;
73421;SDS011;61637;47.760;-122.022;2023-01-15T00:02:01;6.3;;;1.8;;
73421;SDS011;61637;47.760;-122.022;2023-01-15T00:04:03;6.6;;;1.9;;
73421;SDS011;61637;47.760;-122.022;2023-01-15T00:06:02;4.2;;;1.6;;
73421;SDS011;61637;47.760;-122.022;2023-01-15T00:08:00;3.7;;;1.2;;
73421;SDS011;61637;47.760;-122.022;2023-01-15T00:10:01;4.4;;;1.3;;
73421;SDS011;61637;47.760;-122.022;2023-01-15T00:12:01;4.1;;;1.3;;
73421;SDS011;61637;47.760;-122.022;2023-01-15T00:14:01;4.2;;;1.4;;
73421;SDS011;61637;47.760;-122.022;2023-01-15T00:16:02;5.6;;;1.3;;
73421;SDS011;61637;47.760;-122.022;2023-01-15T00:18:01;4.3;;;1.3;;
73421;SDS011;61637;47.760;-122.022;2023-01-15T00:20:01;7.2;;;1.5;;
73421;SDS011;61637;47.760;-122.022;2023-01-15T00:22:01;5.6;;;1.3;;
73421;SDS011;61637;47.760;-122.022;2023-01-15T00:24:01;4.8;;;1.8;;
73421;SDS011;61637;47.760;-122.022;2023-01-15T00:26:01;6.1;;;1.6;;
73421;SDS011;61637;47.760;-122.022;2023-01-15T00:28:00;7.6;;;1.7;;
73421;SDS011;61637;47.760;-122.022;2023-01-15T00:30:01;6.6;;;1.7;;
73421;SDS011;61637;47.760;-122.022;2023-01-15T00:32:03;5.4;;;1.8;;
73421;SDS011;61637;47.760;-122.022;2023-01-15T00:34:02;4.8;;;1.7;;
73421;SDS011;61637;47.760;-122.022;2023-01-15T00:36:01;5.1;;;1.7;;
73421;SDS011;61637;47.760;-122.022;2023-01-15T00:38:01;4.8;;;1.6;;
73421;SDS011;61637;47.760;-122.022;2023-01-15T00:40:00;4.8;;;1.7;;
73421;SDS011;61637;47.760;-122.022;2023-01-15T00:42:02;5.6;;;1.7;;
73421;SDS011;61637;47.760;-122.022;2023-01-15T00:44:01;6.9;;;1.7;;
73421;SDS011;61637;47.760;-122.022;2023-01-15T00:46:01;5.6;;;1.6;;
73421;SDS011;61637;47.760;-122.022;2023-01-15T00:48:00;5.0;;;1.6;;
73421;SDS011;61637;47.760;-122.022;2023-01-15T00:50:01;3.8;;;1.4;;
73421;SDS011;61637;47.760;-122.022;2023-01-15T00:52:00;4.4;;;1.5;;
73421;SDS011;61637;47.760;-122.022;2023-01-15T00:54:02;4.8;;;1.6;;
73421;SDS011;61637;47.760;-122.022;2023-01-15T00:56:00;5.0;;;1.5;;
73421;SDS011;61637;47.760;-122.022;2023-01-15T00:58:01;4.7;;;1.5;;
73421;SDS011;61637;47.760;-122.022;2023-01-15T01:00:01;5.8;;;1.5;;
73421;SDS011;61637;47.760;-122.022;2023-01-15T01:02:01;4.5;;;1.3;;
73421;SDS011;61637;47.760;-122.022;2023-01-15T01:04:01;5.7;;;1.4;;
73421;SDS011;61637;47.760;-122.022;2023-01-15T01:06:01;7.2;;;1.4;;
73421;SDS011;61637;47.760;-122.022;2023-01-15T01:08:01;5.2;;;1.4;;
73421;SDS011;61637;47.760;-122.022;2023-01-15T01:10:01;4.3;;;1.2;;
73421;SDS011;61637;47.760;-122.022;2023-01-15T01:12:01;5.4;;;1.3;;
73421;SDS011;61637;47.760;-122.022;2023-01-15T01:14:01;3.6;;;1.2;;
73421;SDS011;61637;47.760;-122.022;2023-01-15T01:16:01;4.7;;;1.2;;
73421;SDS011;61637;47.760;-122.022;2023-01-15T01:18:02;5.7;;;1.1;;
73421;SDS011;61637;47.760;-122.022;2023-01-15T01:20:01;4.5;;;1.1;;
73421;SDS011;61637;47.760;-122.022;2023-01-15T01:22:01;4.7;;;1.2;;
73421;SDS011;61637;47.760;-122.022;2023-01-15T01:24:01;3.5;;;1.1;;
73421;SDS011;61637;47.760;-122.022;2023-01-15T01:26:01;6.1;;;1.4;;
73421;SDS011;61637;47.760;-122.022;2023-01-15T01:28:01;6.6;;;1.5;;
73421;SDS011;61637;47.760;-122.022;2023-01-15T01:30:02;4.4;;;1.8;;
73421;SDS011;61637;47.760;-122.022;2023-01-15T01:32:01;5.8;;;1.7;;
73421;SDS011;61637;47.760;-122.022;2023-01-15T01:34:01;7.6;;;2.1;;
73421;SDS011;61637;47.760;-122.022;2023-01-15T01:36:01;7.3;;;2.0;;
73421;SDS011;61637;47.760;-122.022;2023-01-15T01:38:01;8.9;;;2.6;;
73421;SDS011;61637;47.760;-122.022;2023-01-15T01:40:02;10.1;;;3.2;;
73421;SDS011;61637;47.760;-122.022;2023-01-15T01:42:01;9.3;;;3.1;;
73421;SDS011;61637;47.760;-122.022;2023-01-15T01:44:04;7.3;;;2.3;;
73421;SDS011;61637;47.760;-122.022;2023-01-15T01:46:01;7.6;;;2.0;;
73421;SDS011;61637;47.760;-122.022;2023-01-15T01:48:03;9.2;;;1.8;;
73421;SDS011;61637;47.760;-122.022;2023-01-15T01:50:07;7.5;;;2.5;;
73421;SDS011;61637;47.760;-122.022;2023-01-15T01:52:04;11.8;;;4.5;;
73421;SDS011;61637;47.760;-122.022;2023-01-15T01:54:02;16.3;;;6.4;;
73421;SDS011;61637;47.760;-122.022;2023-01-15T01:56:01;17.2;;;6.6;;
73421;SDS011;61637;47.760;-122.022;2023-01-15T01:58:04;15.7;;;6.5;;
73421;SDS011;61637;47.760;-122.022;2023-01-15T02:00:02;20.7;;;8.5;;
73421;SDS011;61637;47.760;-122.022;2023-01-15T02:02:01;20.7;;;9.0;;
73421;SDS011;61637;47.760;-122.022;2023-01-15T02:04:02;21.9;;;11.3;;
73421;SDS011;61637;47.760;-122.022;2023-01-15T02:06:02;25.9;;;12.9;;
73421;SDS011;61637;47.760;-122.022;2023-01-15T02:08:00;20.4;;;9.3;;
73421;SDS011;61637;47.760;-122.022;2023-01-15T02:10:01;17.8;;;9.4;;
73421;SDS011;61637;47.760;-122.022;2023-01-15T02:12:05;12.1;;;6.4;;
73421;SDS011;61637;47.760;-122.022;2023-01-15T02:14:05;13.2;;;7.4;;
73421;SDS011;61637;47.760;-122.022;2023-01-15T02:16:07;9.8;;;5.3;;
73421;SDS011;61637;47.760;-122.022;2023-01-15T02:18:10;11.8;;;5.0;;
73421;SDS011;61637;47.760;-122.022;2023-01-15T02:20:21;7.3;;;3.1;;
73421;SDS011;61637;47.760;-122.022;2023-01-15T02:22:08;6.1;;;2.1;;
73421;SDS011;61637;47.760;-122.022;2023-01-15T02:24:10;5.6;;;2.5;;
73421;SDS011;61637;47.760;-122.022;2023-01-15T02:26:10;9.8;;;3.7;;
73421;SDS011;61637;47.760;-122.022;2023-01-15T02:28:06;7.4;;;3.3;;
73421;SDS011;61637;47.760;-122.022;2023-01-15T02:30:06;7.8;;;4.4;;
73421;SDS011;61637;47.760;-122.022;2023-01-15T02:32:06;10.3;;;5.5;;
73421;SDS011;61637;47.760;-122.022;2023-01-15T02:34:04;13.0;;;5.5;;
73421;SDS011;61637;47.760;-122.022;2023-01-15T02:36:02;10.8;;;5.5;;
73421;SDS011;61637;47.760;-122.022;2023-01-15T02:38:05;9.7;;;4.8;;
73421;SDS011;61637;47.760;-122.022;2023-01-15T02:40:03;9.3;;;4.6;;
73421;SDS011;61637;47.760;-122.022;2023-01-15T02:42:03;8.4;;;4.8;;
73421;SDS011;61637;47.760;-122.022;2023-01-15T02:44:03;12.1;;;5.5;;
73421;SDS011;61637;47.760;-122.022;2023-01-15T02:46:02;8.6;;;4.5;;
73421;SDS011;61637;47.760;-122.022;2023-01-15T02:48:04;8.8;;;3.9;;
73421;SDS011;61637;47.760;-122.022;2023-01-15T02:50:05;7.9;;;3.9;;
73421;SDS011;61637;47.760;-122.022;2023-01-15T02:52:04;8.7;;;3.8;;
73421;SDS011;61637;47.760;-122.022;2023-01-15T02:54:03;7.7;;;3.9;;
73421;SDS011;61637;47.760;-122.022;2023-01-15T02:56:04;9.2;;;3.8;;
73421;SDS011;61637;47.760;-122.022;2023-01-15T02:58:04;7.4;;;3.5;;
73421;SDS011;61637;47.760;-122.022;2023-01-15T03:00:04;8.7;;;3.7;;
73421;SDS011;61637;47.760;-122.022;2023-01-15T03:02:04;9.1;;;3.0;;
73421;SDS011;61637;47.760;-122.022;2023-01-15T03:04:05;6.7;;;3.0;;
73421;SDS011;61637;47.760;-122.022;2023-01-15T03:06:06;6.1;;;2.6;;
73421;SDS011;61637;47.760;-122.022;2023-01-15T03:08:02;7.2;;;2.7;;
73421;SDS011;61637;47.760;-122.022;2023-01-15T03:10:02;5.9;;;2.1;;
73421;SDS011;61637;47.760;-122.022;2023-01-15T03:12:05;6.0;;;2.4;;
73421;SDS011;61637;47.760;-122.022;2023-01-15T03:14:03;6.0;;;2.4;;
73421;SDS011;61637;47.760;-122.022;2023-01-15T03:16:04;7.2;;;2.5;;
73421;SDS011;61637;47.760;-122.022;2023-01-15T03:18:02;7.3;;;2.2;;
73421;SDS011;61637;47.760;-122.022;2023-01-15T03:20:07;8.0;;;2.1;;
73421;SDS011;61637;47.760;-122.022;2023-01-15T03:22:06;6.3;;;2.3;;
73421;SDS011;61637;47.760;-122.022;2023-01-15T03:24:03;5.6;;;2.2;;
73421;SDS011;61637;47.760;-122.022;2023-01-15T03:26:01;6.8;;;2.3;;
73421;SDS011;61637;47.760;-122.022;2023-01-15T03:28:03;7.4;;;2.2;;
73421;SDS011;61637;47.760;-122.022;2023-01-15T03:30:05;5.7;;;1.8;;
73421;SDS011;61637;47.760;-122.022;2023-01-15T03:32:01;7.1;;;2.2;;
73421;SDS011;61637;47.760;-122.022;2023-01-15T03:34:01;4.6;;;1.8;;
73421;SDS011;61637;47.760;-122.022;2023-01-15T03:36:01;4.6;;;1.7;;
73421;SDS011;61637;47.760;-122.022;2023-01-15T03:38:01;6.9;;;1.7;;
73421;SDS011;61637;47.760;-122.022;2023-01-15T03:40:01;4.6;;;1.7;;
73421;SDS011;61637;47.760;-122.022;2023-01-15T03:42:14;5.7;;;1.5;;
73421;SDS011;61637;47.760;-122.022;2023-01-15T03:44:09;6.7;;;1.5;;
73421;SDS011;61637;47.760;-122.022;2023-01-15T03:46:05;6.4;;;1.5;;
73421;SDS011;61637;47.760;-122.022;2023-01-15T03:48:09;5.0;;;1.3;;
73421;SDS011;61637;47.760;-122.022;2023-01-15T03:50:07;5.4;;;1.3;;
73421;SDS011;61637;47.760;-122.022;2023-01-15T03:52:04;4.4;;;1.2;;
73421;SDS011;61637;47.760;-122.022;2023-01-15T03:54:04;3.9;;;1.1;;
73421;SDS011;61637;47.760;-122.022;2023-01-15T03:56:07;3.5;;;1.1;;
73421;SDS011;61637;47.760;-122.022;2023-01-15T03:58:06;5.4;;;1.1;;
73421;SDS011;61637;47.760;-122.022;2023-01-15T04:00:06;4.8;;;1.1;;
73421;SDS011;61637;47.760;-122.022;2023-01-15T04:02:04;2.9;;;1.0;;
73421;SDS011;61637;47.760;-122.022;2023-01-15T04:04:01;6.2;;;1.1;;
73421;SDS011;61637;47.760;-122.022;2023-01-15T04:06:02;3.6;;;1.1;;
73421;SDS011;61637;47.760;-122.022;2023-01-15T04:08:01;5.0;;;0.9;;
73421;SDS011;61637;47.760;-122.022;2023-01-15T04:10:01;5.4;;;1.0;;
73421;SDS011;61637;47.760;-122.022;2023-01-15T04:12:01;4.5;;;1.4;;
73421;SDS011;61637;47.760;-122.022;2023-01-15T04:14:01;3.5;;;1.0;;
73421;SDS011;61637;47.760;-122.022;2023-01-15T04:16:01;4.2;;;1.2;;
73421;SDS011;61637;47.760;-122.022;2023-01-15T04:18:01;2.6;;;0.9;;
73421;SDS011;61637;47.760;-122.022;2023-01-15T04:20:01;4.0;;;1.0;;
73421;SDS011;61637;47.760;-122.022;2023-01-15T04:22:00;3.0;;;0.9;;
73421;SDS011;61637;47.760;-122.022;2023-01-15T04:24:00;2.2;;;0.8;;
73421;SDS011;61637;47.760;-122.022;2023-01-15T04:26:01;4.6;;;0.7;;
73421;SDS011;61637;47.760;-122.022;2023-01-15T04:28:01;3.2;;;0.8;;
73421;SDS011;61637;47.760;-122.022;2023-01-15T04:30:02;4.1;;;0.9;;
73421;SDS011;61637;47.760;-122.022;2023-01-15T04:32:01;3.5;;;1.2;;
73421;SDS011;61637;47.760;-122.022;2023-01-15T04:34:01;2.7;;;0.7;;
73421;SDS011;61637;47.760;-122.022;2023-01-15T04:36:02;2.6;;;0.7;;
73421;SDS011;61637;47.760;-122.022;2023-01-15T04:38:01;2.6;;;0.8;;
73421;SDS011;61637;47.760;-122.022;2023-01-15T04:40:00;2.9;;;0.8;;
73421;SDS011;61637;47.760;-122.022;2023-01-15T04:42:01;2.0;;;0.7;;
73421;SDS011;61637;47.760;-122.022;2023-01-15T04:44:00;2.0;;;0.7;;
73421;SDS011;61637;47.760;-122.022;2023-01-15T04:46:00;3.1;;;0.8;;
73421;SDS011;61637;47.760;-122.022;2023-01-15T04:48:03;3.9;;;0.8;;
73421;SDS011;61637;47.760;-122.022;2023-01-15T04:50:01;2.6;;;0.7;;
73421;SDS011;61637;47.760;-122.022;2023-01-15T04:52:01;3.1;;;0.8;;
73421;SDS011;61637;47.760;-122.022;2023-01-15T04:54:03;3.9;;;0.7;;
73421;SDS011;61637;47.760;-122.022;2023-01-15T04:56:02;3.1;;;0.8;;
73421;SDS011;61637;47.760;-122.022;2023-01-15T04:58:01;2.2;;;0.9;;
73421;SDS011;61637;47.760;-122.022;2023-01-15T05:00:01;2.0;;;0.6;;
73421;SDS011;61637;47.760;-122.022;2023-01-15T05:02:02;2.9;;;0.7;;
73421;SDS011;61637;47.760;-122.022;2023-01-15T05:04:01;3.3;;;0.8;;
73421;SDS011;61637;47.760;-122.022;2023-01-15T05:06:02;2.5;;;1.0;;
73421;SDS011;61637;47.760;-122.022;2023-01-15T05:08:01;2.7;;;0.7;;
73421;SDS011;61637;47.760;-122.022;2023-01-15T05:10:01;1.9;;;0.7;;
73421;SDS011;61637;47.760;-122.022;2023-01-15T05:12:01;1.8;;;0.7;;
73421;SDS011;61637;47.760;-122.022;2023-01-15T05:14:01;3.1;;;0.8;;
73421;SDS011;61637;47.760;-122.022;2023-01-15T05:16:10;3.0;;;0.8;;
73421;SDS011;61637;47.760;-122.022;2023-01-15T05:18:01;4.5;;;0.7;;
73421;SDS011;61637;47.760;-122.022;2023-01-15T05:20:03;1.6;;;0.7;;
73421;SDS011;61637;47.760;-122.022;2023-01-15T05:22:00;1.3;;;0.6;;
73421;SDS011;61637;47.760;-122.022;2023-01-15T05:24:03;3.9;;;0.8;;
73421;SDS011;61637;47.760;-122.022;2023-01-15T05:26:02;3.7;;;0.6;;
73421;SDS011;61637;47.760;-122.022;2023-01-15T05:28:00;2.9;;;0.7;;
73421;SDS011;61637;47.760;-122.022;2023-01-15T05:30:01;4.9;;;0.8;;
73421;SDS011;61637;47.760;-122.022;2023-01-15T05:32:01;3.6;;;0.7;;
73421;SDS011;61637;47.760;-122.022;2023-01-15T05:34:01;1.8;;;0.7;;
73421;SDS011;61637;47.760;-122.022;2023-01-15T05:36:01;2.6;;;0.7;;
73421;SDS011;61637;47.760;-122.022;2023-01-15T05:38:01;2.4;;;0.8;;
73421;SDS011;61637;47.760;-122.022;2023-01-15T05:40:01;1.5;;;0.6;;
73421;SDS011;61637;47.760;-122.022;2023-01-15T05:42:01;3.9;;;0.8;;
73421;SDS011;61637;47.760;-122.022;2023-01-15T05:44:03;3.4;;;0.8;;
73421;SDS011;61637;47.760;-122.022;2023-01-15T05:46:01;1.7;;;0.7;;
73421;SDS011;61637;47.760;-122.022;2023-01-15T05:48:00;2.5;;;0.7;;
73421;SDS011;61637;47.760;-122.022;2023-01-15T05:50:01;3.4;;;0.8;;
73421;SDS011;61637;47.760;-122.022;2023-01-15T05:52:01;1.9;;;0.8;;
73421;SDS011;61637;47.760;-122.022;2023-01-15T05:54:02;3.1;;;0.8;;
73421;SDS011;61637;47.760;-122.022;2023-01-15T05:56:02;4.0;;;0.8;;
73421;SDS011;61637;47.760;-122.022;2023-01-15T05:58:00;2.2;;;0.8;;
73421;SDS011;61637;47.760;-122.022;2023-01-15T06:00:01;2.7;;;0.8;;
73421;SDS011;61637;47.760;-122.022;2023-01-15T06:02:01;3.6;;;0.8;;
73421;SDS011;61637;47.760;-122.022;2023-01-15T06:04:03;4.7;;;0.8;;
73421;SDS011;61637;47.760;-122.022;2023-01-15T06:06:02;5.2;;;0.8;;
73421;SDS011;61637;47.760;-122.022;2023-01-15T06:08:00;7.6;;;1.2;;
73421;SDS011;61637;47.760;-122.022;2023-01-15T06:10:01;5.0;;;0.9;;
73421;SDS011;61637;47.760;-122.022;2023-01-15T06:12:01;3.3;;;1.1;;
73421;SDS011;61637;47.760;-122.022;2023-01-15T06:14:01;4.4;;;1.3;;
73421;SDS011;61637;47.760;-122.022;2023-01-15T06:16:02;4.4;;;1.0;;
73421;SDS011;61637;47.760;-122.022;2023-01-15T06:18:01;4.7;;;1.0;;
73421;SDS011;61637;47.760;-122.022;2023-01-15T06:20:00;3.6;;;0.9;;
73421;SDS011;61637;47.760;-122.022;2023-01-15T06:22:01;3.4;;;1.0;;
73421;SDS011;61637;47.760;-122.022;2023-01-15T06:24:01;3.2;;;0.9;;
73421;SDS011;61637;47.760;-122.022;2023-01-15T06:26:02;2.5;;;0.9;;
73421;SDS011;61637;47.760;-122.022;2023-01-15T06:28:00;3.9;;;1.0;;
73421;SDS011;61637;47.760;-122.022;2023-01-15T06:30:01;4.8;;;1.0;;
73421;SDS011;61637;47.760;-122.022;2023-01-15T06:32:00;3.9;;;1.0;;
73421;SDS011;61637;47.760;-122.022;2023-01-15T06:34:01;3.3;;;0.9;;
73421;SDS011;61637;47.760;-122.022;2023-01-15T06:36:02;3.9;;;1.1;;
73421;SDS011;61637;47.760;-122.022;2023-01-15T06:38:01;5.0;;;1.0;;
73421;SDS011;61637;47.760;-122.022;2023-01-15T06:40:01;3.8;;;1.4;;
73421;SDS011;61637;47.760;-122.022;2023-01-15T06:42:01;5.3;;;1.2;;
73421;SDS011;61637;47.760;-122.022;2023-01-15T06:44:01;4.5;;;1.2;;
73421;SDS011;61637;47.760;-122.022;2023-01-15T06:46:00;3.1;;;1.1;;
73421;SDS011;61637;47.760;-122.022;2023-01-15T06:48:01;2.9;;;0.9;;
73421;SDS011;61637;47.760;-122.022;2023-01-15T06:50:01;3.5;;;0.9;;
73421;SDS011;61637;47.760;-122.022;2023-01-15T06:52:02;4.1;;;0.9;;
73421;SDS011;61637;47.760;-122.022;2023-01-15T06:54:01;2.7;;;1.0;;
73421;SDS011;61637;47.760;-122.022;2023-01-15T06:56:01;2.8;;;0.9;;
73421;SDS011;61637;47.760;-122.022;2023-01-15T06:58:02;3.9;;;0.8;;
73421;SDS011;61637;47.760;-122.022;2023-01-15T07:00:00;3.4;;;0.9;;
73421;SDS011;61637;47.760;-122.022;2023-01-15T07:02:01;4.7;;;0.8;;
73421;SDS011;61637;47.760;-122.022;2023-01-15T07:04:01;3.9;;;0.8;;
73421;SDS011;61637;47.760;-122.022;2023-01-15T07:06:05;3.7;;;0.8;;
73421;SDS011;61637;47.760;-122.022;2023-01-15T07:08:00;3.2;;;0.9;;
73421;SDS011;61637;47.760;-122.022;2023-01-15T07:10:00;2.7;;;0.7;;
73421;SDS011;61637;47.760;-122.022;2023-01-15T07:12:00;3.1;;;0.9;;
73421;SDS011;61637;47.760;-122.022;2023-01-15T07:14:00;1.9;;;0.7;;
73421;SDS011;61637;47.760;-122.022;2023-01-15T07:16:02;3.0;;;0.9;;
73421;SDS011;61637;47.760;-122.022;2023-01-15T07:18:01;2.3;;;0.8;;
73421;SDS011;61637;47.760;-122.022;2023-01-15T07:20:01;3.7;;;0.7;;
73421;SDS011;61637;47.760;-122.022;2023-01-15T07:22:01;3.3;;;0.7;;
73421;SDS011;61637;47.760;-122.022;2023-01-15T07:24:01;5.4;;;0.7;;
73421;SDS011;61637;47.760;-122.022;2023-01-15T07:26:00;7.1;;;1.0;;
73421;SDS011;61637;47.760;-122.022;2023-01-15T07:28:00;5.6;;;1.0;;
73421;SDS011;61637;47.760;-122.022;2023-01-15T07:30:01;5.0;;;1.1;;
73421;SDS011;61637;47.760;-122.022;2023-01-15T07:32:01;3.8;;;0.8;;
73421;SDS011;61637;47.760;-122.022;2023-01-15T07:34:00;3.9;;;0.8;;
73421;SDS011;61637;47.760;-122.022;2023-01-15T07:36:02;3.6;;;0.9;;
73421;SDS011;61637;47.760;-122.022;2023-01-15T07:38:01;2.6;;;0.8;;
73421;SDS011;61637;47.760;-122.022;2023-01-15T07:40:01;5.8;;;0.8;;
73421;SDS011;61637;47.760;-122.022;2023-01-15T07:42:01;3.6;;;0.7;;
73421;SDS011;61637;47.760;-122.022;2023-01-15T07:44:01;3.6;;;0.7;;
73421;SDS011;61637;47.760;-122.022;2023-01-15T07:46:01;3.5;;;0.7;;
73421;SDS011;61637;47.760;-122.022;2023-01-15T07:48:00;2.4;;;0.8;;
73421;SDS011;61637;47.760;-122.022;2023-01-15T07:50:01;4.3;;;0.7;;
73421;SDS011;61637;47.760;-122.022;2023-01-15T07:52:00;3.7;;;0.8;;
73421;SDS011;61637;47.760;-122.022;2023-01-15T07:54:01;3.3;;;0.9;;
73421;SDS011;61637;47.760;-122.022;2023-01-15T07:56:01;3.5;;;1.3;;
73421;SDS011;61637;47.760;-122.022;2023-01-15T07:58:02;3.0;;;0.9;;
73421;SDS011;61637;47.760;-122.022;2023-01-15T08:00:00;7.1;;;1.2;;
73421;SDS011;61637;47.760;-122.022;2023-01-15T08:02:01;3.6;;;1.0;;
73421;SDS011;61637;47.760;-122.022;2023-01-15T08:04:00;3.6;;;1.1;;
73421;SDS011;61637;47.760;-122.022;2023-01-15T08:06:01;2.9;;;1.0;;
73421;SDS011;61637;47.760;-122.022;2023-01-15T08:08:00;4.8;;;0.9;;
73421;SDS011;61637;47.760;-122.022;2023-01-15T08:10:00;2.7;;;0.9;;
73421;SDS011;61637;47.760;-122.022;2023-01-15T08:12:02;5.4;;;1.1;;
73421;SDS011;61637;47.760;-122.022;2023-01-15T08:14:01;2.9;;;0.9;;
73421;SDS011;61637;47.760;-122.022;2023-01-15T08:16:01;4.4;;;1.0;;
73421;SDS011;61637;47.760;-122.022;2023-01-15T08:18:01;4.0;;;1.0;;
73421;SDS011;61637;47.760;-122.022;2023-01-15T08:20:01;2.4;;;0.9;;
73421;SDS011;61637;47.760;-122.022;2023-01-15T08:22:01;3.7;;;0.8;;
73421;SDS011;61637;47.760;-122.022;2023-01-15T08:24:01;4.4;;;0.8;;
73421;SDS011;61637;47.760;-122.022;2023-01-15T08:26:01;3.5;;;0.8;;
73421;SDS011;61637;47.760;-122.022;2023-01-15T08:28:02;3.0;;;0.7;;
73421;SDS011;61637;47.760;-122.022;2023-01-15T08:30:01;3.3;;;0.8;;
73421;SDS011;61637;47.760;-122.022;2023-01-15T08:32:00;2.1;;;0.7;;
73421;SDS011;61637;47.760;-122.022;2023-01-15T08:34:01;3.5;;;0.9;;
73421;SDS011;61637;47.760;-122.022;2023-01-15T08:36:01;3.7;;;0.7;;
73421;SDS011;61637;47.760;-122.022;2023-01-15T08:38:03;3.1;;;0.8;;
73421;SDS011;61637;47.760;-122.022;2023-01-15T08:40:00;3.1;;;0.8;;
73421;SDS011;61637;47.760;-122.022;2023-01-15T08:42:01;2.7;;;0.9;;
73421;SDS011;61637;47.760;-122.022;2023-01-15T08:44:00;2.5;;;0.8;;
73421;SDS011;61637;47.760;-122.022;2023-01-15T08:46:03;4.1;;;0.9;;
73421;SDS011;61637;47.760;-122.022;2023-01-15T08:48:00;2.7;;;0.7;;
73421;SDS011;61637;47.760;-122.022;2023-01-15T08:50:01;3.2;;;0.7;;
73421;SDS011;61637;47.760;-122.022;2023-01-15T08:52:01;3.8;;;0.8;;
73421;SDS011;61637;47.760;-122.022;2023-01-15T08:54:01;3.9;;;0.8;;
73421;SDS011;61637;47.760;-122.022;2023-01-15T08:56:01;3.7;;;0.7;;
73421;SDS011;61637;47.760;-122.022;2023-01-15T08:58:00;1.9;;;0.7;;
73421;SDS011;61637;47.760;-122.022;2023-01-15T09:00:01;5.7;;;0.8;;
73421;SDS011;61637;47.760;-122.022;2023-01-15T09:02:01;2.8;;;0.6;;
73421;SDS011;61637;47.760;-122.022;2023-01-15T09:04:01;2.7;;;0.7;;
73421;SDS011;61637;47.760;-122.022;2023-01-15T09:06:02;3.1;;;0.7;;
73421;SDS011;61637;47.760;-122.022;2023-01-15T09:08:01;2.3;;;0.7;;
73421;SDS011;61637;47.760;-122.022;2023-01-15T09:10:00;3.7;;;0.7;;
73421;SDS011;61637;47.760;-122.022;2023-01-15T09:12:01;2.7;;;0.7;;
73421;SDS011;61637;47.760;-122.022;2023-01-15T09:14:01;4.1;;;0.7;;
73421;SDS011;61637;47.760;-122.022;2023-01-15T09:16:02;2.6;;;0.8;;
73421;SDS011;61637;47.760;-122.022;2023-01-15T09:18:01;4.6;;;0.7;;
73421;SDS011;61637;47.760;-122.022;2023-01-15T09:20:00;2.7;;;0.7;;
73421;SDS011;61637;47.760;-122.022;2023-01-15T09:22:00;3.1;;;0.6;;
73421;SDS011;61637;47.760;-122.022;2023-01-15T09:24:01;1.9;;;0.6;;
73421;SDS011;61637;47.760;-122.022;2023-01-15T09:26:03;2.5;;;0.6;;
73421;SDS011;61637;47.760;-122.022;2023-01-15T09:28:00;4.5;;;0.7;;
73421;SDS011;61637;47.760;-122.022;2023-01-15T09:30:01;2.3;;;0.7;;
73421;SDS011;61637;47.760;-122.022;2023-01-15T09:32:00;3.6;;;0.7;;
73421;SDS011;61637;47.760;-122.022;2023-01-15T09:34:01;2.5;;;0.7;;
73421;SDS011;61637;47.760;-122.022;2023-01-15T09:36:01;3.0;;;0.7;;
73421;SDS011;61637;47.760;-122.022;2023-01-15T09:38:01;4.1;;;0.7;;
73421;SDS011;61637;47.760;-122.022;2023-01-15T09:40:01;2.7;;;0.7;;
73421;SDS011;61637;47.760;-122.022;2023-01-15T09:42:10;1.9;;;0.7;;
73421;SDS011;61637;47.760;-122.022;2023-01-15T09:44:11;2.0;;;0.7;;
73421;SDS011;61637;47.760;-122.022;2023-01-15T09:46:07;3.2;;;0.6;;
73421;SDS011;61637;47.760;-122.022;2023-01-15T09:48:12;3.4;;;0.7;;
73421;SDS011;61637;47.760;-122.022;2023-01-15T09:50:16;4.7;;;0.8;;
73421;SDS011;61637;47.760;-122.022;2023-01-15T09:52:07;1.8;;;0.6;;
73421;SDS011;61637;47.760;-122.022;2023-01-15T09:54:13;5.4;;;0.7;;
73421;SDS011;61637;47.760;-122.022;2023-01-15T09:56:01;2.8;;;0.7;;
73421;SDS011;61637;47.760;-122.022;2023-01-15T09:58:03;3.2;;;0.6;;
73421;SDS011;61637;47.760;-122.022;2023-01-15T10:00:03;3.6;;;0.6;;
73421;SDS011;61637;47.760;-122.022;2023-01-15T10:02:11;2.3;;;0.6;;
73421;SDS011;61637;47.760;-122.022;2023-01-15T10:04:06;4.6;;;0.7;;
73421;SDS011;61637;47.760;-122.022;2023-01-15T10:06:10;3.8;;;0.8;;
73421;SDS011;61637;47.760;-122.022;2023-01-15T10:08:10;3.6;;;0.7;;
73421;SDS011;61637;47.760;-122.022;2023-01-15T10:10:05;2.0;;;0.7;;
73421;SDS011;61637;47.760;-122.022;2023-01-15T10:12:07;2.6;;;0.8;;
73421;SDS011;61637;47.760;-122.022;2023-01-15T10:14:05;4.4;;;0.8;;
73421;SDS011;61637;47.760;-122.022;2023-01-15T10:16:01;2.3;;;0.8;;
73421;SDS011;61637;47.760;-122.022;2023-01-15T10:18:01;2.7;;;0.7;;
73421;SDS011;61637;47.760;-122.022;2023-01-15T10:20:01;3.6;;;0.7;;
73421;SDS011;61637;47.760;-122.022;2023-01-15T10:22:06;5.1;;;0.9;;
73421;SDS011;61637;47.760;-122.022;2023-01-15T10:24:05;4.3;;;0.7;;
73421;SDS011;61637;47.760;-122.022;2023-01-15T10:26:03;4.8;;;0.8;;
73421;SDS011;61637;47.760;-122.022;2023-01-15T10:28:07;3.4;;;0.7;;
73421;SDS011;61637;47.760;-122.022;2023-01-15T10:30:05;1.8;;;0.7;;
73421;SDS011;61637;47.760;-122.022;2023-01-15T10:32:22;3.1;;;0.8;;
73421;SDS011;61637;47.760;-122.022;2023-01-15T10:34:10;1.7;;;0.7;;
73421;SDS011;61637;47.760;-122.022;2023-01-15T10:36:05;2.3;;;0.6;;
73421;SDS011;61637;47.760;-122.022;2023-01-15T10:38:11;1.6;;;0.7;;
73421;SDS011;61637;47.760;-122.022;2023-01-15T10:40:14;3.2;;;0.8;;
73421;SDS011;61637;47.760;-122.022;2023-01-15T10:42:08;2.3;;;0.7;;
73421;SDS011;61637;47.760;-122.022;2023-01-15T10:44:08;3.7;;;0.7;;
73421;SDS011;61637;47.760;-122.022;2023-01-15T10:46:09;2.7;;;0.7;;
73421;SDS011;61637;47.760;-122.022;2023-01-15T10:48:08;2.9;;;0.7;;
73421;SDS011;61637;47.760;-122.022;2023-01-15T10:50:02;3.8;;;0.7;;
73421;SDS011;61637;47.760;-122.022;2023-01-15T10:52:06;4.0;;;0.7;;
73421;SDS011;61637;47.760;-122.022;2023-01-15T10:54:05;2.5;;;0.8;;
73421;SDS011;61637;47.760;-122.022;2023-01-15T10:56:08;2.6;;;0.7;;
73421;SDS011;61637;47.760;-122.022;2023-01-15T10:58:08;2.5;;;0.7;;
73421;SDS011;61637;47.760;-122.022;2023-01-15T11:00:01;3.4;;;0.6;;
73421;SDS011;61637;47.760;-122.022;2023-01-15T11:02:06;2.6;;;0.6;;
73421;SDS011;61637;47.760;-122.022;2023-01-15T11:04:03;3.2;;;0.7;;
73421;SDS011;61637;47.760;-122.022;2023-01-15T11:06:01;2.1;;;0.7;;
73421;SDS011;61637;47.760;-122.022;2023-01-15T11:08:05;3.1;;;0.6;;
73421;SDS011;61637;47.760;-122.022;2023-01-15T11:10:05;3.1;;;0.7;;
73421;SDS011;61637;47.760;-122.022;2023-01-15T11:12:16;1.9;;;0.6;;
73421;SDS011;61637;47.760;-122.022;2023-01-15T11:14:01;2.0;;;0.7;;
73421;SDS011;61637;47.760;-122.022;2023-01-15T11:16:01;2.8;;;0.7;;
73421;SDS011;61637;47.760;-122.022;2023-01-15T11:18:02;3.7;;;0.6;;
73421;SDS011;61637;47.760;-122.022;2023-01-15T11:20:02;3.2;;;0.7;;
73421;SDS011;61637;47.760;-122.022;2023-01-15T11:22:06;2.3;;;0.6;;
73421;SDS011;61637;47.760;-122.022;2023-01-15T11:24:01;3.6;;;0.7;;
73421;SDS011;61637;47.760;-122.022;2023-01-15T11:26:02;5.4;;;0.7;;
73421;SDS011;61637;47.760;-122.022;2023-01-15T11:28:04;2.0;;;0.6;;
73421;SDS011;61637;47.760;-122.022;2023-01-15T11:30:03;3.2;;;0.6;;
73421;SDS011;61637;47.760;-122.022;2023-01-15T11:32:01;4.7;;;0.6;;
73421;SDS011;61637;47.760;-122.022;2023-01-15T11:34:03;5.4;;;0.7;;
73421;SDS011;61637;47.760;-122.022;2023-01-15T11:36:05;1.7;;;0.6;;
73421;SDS011;61637;47.760;-122.022;2023-01-15T11:38:04;2.4;;;0.6;;
73421;SDS011;61637;47.760;-122.022;2023-01-15T11:40:01;4.1;;;0.7;;
73421;SDS011;61637;47.760;-122.022;2023-01-15T11:42:03;3.1;;;0.7;;
73421;SDS011;61637;47.760;-122.022;2023-01-15T11:44:00;4.2;;;0.8;;
73421;SDS011;61637;47.760;-122.022;2023-01-15T11:46:00;4.4;;;0.6;;
73421;SDS011;61637;47.760;-122.022;2023-01-15T11:48:08;2.2;;;0.7;;
73421;SDS011;61637;47.760;-122.022;2023-01-15T11:50:01;2.0;;;0.6;;